Time;durP1;ratioP1;P1;durP2;ratioP2;P2;SDS_P1;SDS_P2;PMS_P1;PMS_P2;Temp;Humidity;BMP_temperature;BMP_pressure;BME280_temperature;BME280_humidity;BME280_pressure;Samples;Min_cycle;Max_cycle;Signal;HPM_P1;HPM_P2
2022/06/06 00:02:20;;;;;;;70.88;52.03;;;;;;;14.83;100.00;154489.88;5068394;28;20055;-63
2022/06/06 00:04:45;;;;;;;74.43;52.38;;;;;;;14.83;100.00;155555.53;5070468;28;20032;-63
2022/06/06 00:07:11;;;;;;;72.65;53.45;;;;;;;14.80;100.00;155901.84;5068965;28;20066;-63
2022/06/06 00:09:36;;;;;;;87.35;58.33;;;;;;;14.83;100.00;155555.53;5070160;28;20021;-62
2022/06/06 00:12:04;;;;;;;80.55;58.92;;;;;;;14.82;100.00;154842.53;5068075;28;20055;-62
2022/06/06 00:14:29;;;;;;;102.72;65.53;;;;;;;14.81;100.00;153774.53;5070187;28;20476;-62
2022/06/06 00:16:55;;;;;;;105.22;65.88;;;;;;;14.89;100.00;153438.38;5068334;28;20043;-63
2022/06/06 00:19:21;;;;;;;100.97;69.03;;;;;;;14.85;100.00;154494.97;5070485;28;20035;-62
2022/06/06 00:21:47;;;;;;;104.10;63.60;;;;;;;14.83;100.00;157332.25;5068323;28;20036;-62
2022/06/06 00:24:13;;;;;;;96.50;63.45;;;;;;;14.82;100.00;157329.66;5070039;28;20103;-62
2022/06/06 00:26:39;;;;;;;102.22;62.50;;;;;;;14.76;100.00;157736.16;5068772;28;20048;-62
2022/06/06 00:29:05;;;;;;;89.95;57.45;;;;;;;14.76;100.00;156603.47;5070046;28;20036;-62
2022/06/06 00:37:03;;;;;;;109.25;53.92;;;;;;;14.79;100.00;160127.06;5059777;28;20851;-62
2022/06/06 00:39:28;;;;;;;109.72;58.22;;;;;;;14.80;100.00;159718.53;5059367;28;20036;-63
2022/06/06 00:41:56;;;;;;;105.35;57.88;;;;;;;14.78;100.00;158173.25;5061340;28;20036;-62
2022/06/06 00:44:31;;;;;;;119.95;60.17;;;;;;;14.75;100.00;156245.59;5058893;28;20064;-63
2022/06/06 00:47:24;;;;;;;120.25;59.25;;;;;;;14.68;100.00;155872.41;5048452;28;20048;-61
2022/06/06 00:50:02;;;;;;;125.03;57.92;;;;;;;14.55;100.00;155131.44;5049657;28;20417;-61
2022/06/06 00:52:35;;;;;;;116.53;54.65;;;;;;;14.51;100.00;155830.09;5047943;28;20048;-61
2022/06/06 00:55:13;;;;;;;110.00;50.00;;;;;;;14.46;100.00;157594.34;5048736;28;20040;-61
2022/06/06 00:57:46;;;;;;;99.30;50.30;;;;;;;14.44;100.00;158094.25;5050025;28;20035;-61
2022/06/06 01:00:15;;;;;;;98.20;51.63;;;;;;;14.41;100.00;159468.75;5047951;28;20484;-62
2022/06/06 01:02:43;;;;;;;104.40;49.20;;;;;;;14.33;100.00;158627.53;5049416;28;20100;-61
2022/06/06 01:05:09;;;;;;;110.45;52.22;;;;;;;14.33;100.00;155785.28;5048437;28;20025;-62
2022/06/06 01:07:35;;;;;;;103.45;49.63;;;;;;;14.26;100.00;155413.69;5049664;28;20102;-61
2022/06/06 01:10:00;;;;;;;104.30;45.75;;;;;;;14.25;100.00;155057.50;5048331;28;20024;-62
2022/06/06 01:12:28;;;;;;;97.10;46.70;;;;;;;14.24;100.00;156474.75;5049908;28;20025;-61
2022/06/06 01:14:57;;;;;;;97.78;48.03;;;;;;;14.23;100.00;159288.19;5052602;28;20112;-62
2022/06/06 01:17:46;;;;;;;92.22;49.92;;;;;;;14.07;100.00;163103.28;5071973;28;20407;-61
2022/06/06 01:20:44;;;;;;;106.03;53.42;;;;;;;14.03;100.00;163618.91;5072005;28;20035;-61
2022/06/06 01:23:24;;;;;;;96.40;53.00;;;;;;;14.03;100.00;164232.72;5072933;28;20126;-62
2022/06/06 01:26:03;;;;;;;91.80;53.22;;;;;;;13.91;100.00;164202.94;5071484;28;20048;-62
2022/06/06 01:28:34;;;;;;;86.03;51.78;;;;;;;13.91;100.00;164201.63;5073129;28;20632;-61
2022/06/06 01:31:07;;;;;;;80.90;49.97;;;;;;;13.85;100.00;164185.41;5070636;28;20594;-61
2022/06/06 01:33:48;;;;;;;81.25;45.67;;;;;;;13.90;100.00;164200.25;5073174;28;20040;-62
2022/06/06 01:36:13;;;;;;;81.07;48.35;;;;;;;13.87;100.00;164190.75;5071857;28;20036;-62
2022/06/06 01:38:40;;;;;;;78.95;47.10;;;;;;;13.83;100.00;164181.31;5072566;28;20468;-62
2022/06/06 01:41:11;;;;;;;73.05;46.50;;;;;;;13.79;100.00;164170.50;5071118;28;20045;-62
2022/06/06 01:43:41;;;;;;;68.20;44.83;;;;;;;13.85;100.00;164185.41;5073166;28;20029;-62
2022/06/06 01:46:15;;;;;;;66.45;42.63;;;;;;;13.83;100.00;164181.31;5071130;28;20119;-62
2022/06/06 01:48:42;;;;;;;63.25;42.28;;;;;;;13.87;100.00;164192.16;5072663;28;20028;-61
2022/06/06 01:51:21;;;;;;;57.22;38.05;;;;;;;13.86;100.00;164189.44;5071015;28;20041;-62
2022/06/06 01:53:47;;;;;;;52.75;36.30;;;;;;;13.89;100.00;164197.53;5072055;28;20493;-62
2022/06/06 01:56:23;;;;;;;59.35;36.70;;;;;;;13.91;100.00;164201.63;5071383;28;20058;-62
2022/06/06 01:58:48;;;;;;;56.45;36.30;;;;;;;13.89;100.00;164196.19;5072260;28;20024;-62
2022/06/06 02:01:14;;;;;;;52.13;37.08;;;;;;;13.92;100.00;164205.66;5070604;28;20051;-62
2022/06/06 02:03:39;;;;;;;52.67;36.42;;;;;;;13.89;100.00;164197.53;5072267;28;20029;-62
2022/06/06 02:06:05;;;;;;;52.97;37.20;;;;;;;13.92;100.00;164205.66;5070703;28;20045;-62
2022/06/06 02:08:32;;;;;;;54.90;34.00;;;;;;;13.96;100.00;164215.13;5072357;28;20051;-62
2022/06/06 02:10:57;;;;;;;49.50;35.42;;;;;;;13.96;100.00;164215.13;5070296;28;20046;-62
2022/06/06 02:13:23;;;;;;;44.55;29.25;;;;;;;13.95;100.00;164213.78;5072442;28;20372;-63
2022/06/06 02:15:48;;;;;;;48.90;32.55;;;;;;;13.95;100.00;164213.78;5070261;28;20064;-63
2022/06/06 02:18:14;;;;;;;50.30;30.35;;;;;;;13.93;100.00;164208.38;5072305;28;20111;-62
2022/06/06 02:20:40;;;;;;;45.80;30.05;;;;;;;13.95;100.00;164212.41;5070907;28;20040;-63
2022/06/06 02:23:06;;;;;;;48.63;29.77;;;;;;;13.91;100.00;164201.63;5071236;28;20044;-62
2022/06/06 02:25:32;;;;;;;42.70;28.08;;;;;;;13.91;100.00;164202.94;5069602;28;20197;-62
2022/06/06 02:27:58;;;;;;;48.83;32.65;;;;;;;13.94;100.00;164211.09;5071429;28;20032;-62
2022/06/06 02:30:27;;;;;;;40.95;25.73;;;;;;;13.93;100.00;164207.00;5070407;28;20040;-62
2022/06/06 02:32:53;;;;;;;45.50;26.75;;;;;;;13.93;100.00;164208.38;5071283;28;20032;-63
2022/06/06 02:35:22;;;;;;;43.03;30.17;;;;;;;13.92;100.00;164205.66;5070516;28;20040;-63
2022/06/06 02:37:48;;;;;;;34.03;24.95;;;;;;;13.89;100.00;164197.53;5071612;28;20115;-63
2022/06/06 02:40:16;;;;;;;38.47;26.08;;;;;;;13.88;100.00;164193.47;5070272;28;20259;-63
2022/06/06 02:42:42;;;;;;;31.88;24.35;;;;;;;13.89;100.00;164196.19;5071351;28;20125;-63
2022/06/06 02:45:12;;;;;;;33.88;25.60;;;;;;;13.86;100.00;164189.44;5070087;28;20467;-63
2022/06/06 02:47:38;;;;;;;29.80;21.45;;;;;;;13.84;100.00;164182.69;5071906;28;20364;-63
2022/06/06 02:50:06;;;;;;;39.95;25.08;;;;;;;13.81;100.00;164175.94;5069534;28;20032;-63
2022/06/06 02:52:33;;;;;;;30.65;22.88;;;;;;;13.76;100.00;164163.75;5070712;28;20047;-63
2022/06/06 02:54:59;;;;;;;35.15;22.48;;;;;;;13.69;100.00;164144.81;5069587;28;20024;-63
2022/06/06 02:57:24;;;;;;;30.83;23.00;;;;;;;13.64;100.00;164132.63;5071608;28;20024;-63
2022/06/06 02:59:52;;;;;;;33.92;24.70;;;;;;;13.61;100.00;164124.50;5071062;28;20028;-63
2022/06/06 03:02:17;;;;;;;31.20;22.85;;;;;;;13.52;100.00;164100.16;5069490;28;20102;-63
2022/06/06 03:04:42;;;;;;;33.42;22.58;;;;;;;13.49;100.00;164092.06;5071074;28;20032;-63
2022/06/06 03:07:16;;;;;;;39.42;23.50;;;;;;;13.47;100.00;164088.03;5069541;28;20044;-63
2022/06/06 03:10:12;;;;;;;34.25;24.30;;;;;;;13.43;100.00;164075.84;5071132;28;20021;-63
2022/06/06 03:12:55;;;;;;;35.30;22.35;;;;;;;13.46;100.00;164085.31;5069389;28;20042;-63
2022/06/06 03:15:33;;;;;;;40.17;24.27;;;;;;;13.41;100.00;164071.75;5069608;28;20041;-63
2022/06/06 03:21:05;;;;;;;34.33;22.63;;;;;;;13.47;100.00;164086.66;5068873;28;20059;-62
2022/06/06 03:23:36;;;;;;;35.78;24.10;;;;;;;13.52;100.00;164100.16;5071066;28;20036;-61
2022/06/06 03:26:27;;;;;;;31.15;22.10;;;;;;;13.56;100.00;164111.00;5069057;28;20056;-61
2022/06/06 03:29:37;;;;;;;49.10;28.23;;;;;;;13.66;100.00;164135.34;5070289;28;20052;-62
2022/06/06 03:32:27;;;;;;;50.42;30.35;;;;;;;13.69;100.00;164143.44;5059872;28;20044;-62
2022/06/06 03:35:11;;;;;;;46.05;28.60;;;;;;;13.68;100.00;164140.72;5070683;28;20058;-61
2022/06/06 03:37:53;;;;;;;46.38;30.05;;;;;;;13.70;100.00;164146.16;5069443;28;20052;-62
2022/06/06 03:40:53;;;;;;;42.47;27.15;;;;;;;13.76;100.00;164162.38;5069206;28;20064;-62
2022/06/06 03:43:25;;;;;;;47.60;30.88;;;;;;;13.82;100.00;164177.25;5045429;28;20102;-61
2022/06/06 03:46:06;;;;;;;54.05;32.03;;;;;;;13.83;100.00;164179.97;5049091;28;20094;-62
2022/06/06 03:49:05;;;;;;;45.67;31.92;;;;;;;13.84;100.00;164184.00;5054911;28;20024;-61
2022/06/06 03:52:24;;;;;;;50.25;33.35;;;;;;;13.89;100.00;164197.53;5067289;28;20045;-62
2022/06/06 03:55:12;;;;;;;58.88;33.63;;;;;;;13.91;100.00;164202.94;5047740;28;20037;-62
2022/06/06 03:57:38;;;;;;;50.30;30.50;;;;;;;13.87;100.00;164192.16;5046005;28;20036;-62
2022/06/06 04:00:11;;;;;;;52.95;32.85;;;;;;;13.89;100.00;164197.53;5062448;28;20509;-61
2022/06/06 04:02:38;;;;;;;53.53;31.63;;;;;;;13.95;100.00;164213.78;5070419;28;20028;-62
2022/06/06 04:05:12;;;;;;;47.40;29.88;;;;;;;13.94;100.00;164209.69;5068486;28;20024;-61
2022/06/06 04:07:38;;;;;;;53.65;32.72;;;;;;;14.07;100.00;164243.53;5070284;28;20021;-62
2022/06/06 04:10:04;;;;;;;47.22;30.30;;;;;;;14.04;100.00;164235.38;5068430;28;20099;-61
2022/06/06 04:12:54;;;;;;;46.50;29.08;;;;;;;14.09;100.00;164248.94;5069602;28;20472;-62
2022/06/06 04:15:53;;;;;;;46.10;29.58;;;;;;;14.09;100.00;164250.28;5069239;28;20044;-62
2022/06/06 04:18:31;;;;;;;64.97;33.38;;;;;;;14.09;100.00;164248.94;5070530;28;20103;-62
2022/06/06 04:21:24;;;;;;;40.83;28.20;;;;;;;14.10;100.00;164251.66;5067912;28;20119;-62
2022/06/06 04:24:05;;;;;;;57.78;30.23;;;;;;;14.12;100.00;164257.03;5070122;28;20055;-60
2022/06/06 04:27:03;;;;;;;48.45;31.15;;;;;;;14.12;100.00;164258.41;5068869;28;20059;-60
2022/06/06 04:29:50;;;;;;;50.67;29.92;;;;;;;14.19;100.00;164274.66;5070213;28;20091;-60
2022/06/06 04:32:58;;;;;;;51.38;30.90;;;;;;;14.16;100.00;164267.88;5047235;28;20586;-60
2022/06/06 04:35:31;;;;;;;50.60;31.48;;;;;;;14.17;100.00;164270.59;5048492;28;20063;-62
2022/06/06 04:38:21;;;;;;;49.67;35.25;;;;;;;14.14;100.00;164262.47;5060911;28;20024;-62
2022/06/06 04:41:00;;;;;;;52.33;31.80;;;;;;;14.18;100.00;164273.31;5068295;28;20565;-62
2022/06/06 04:43:30;;;;;;;51.67;32.50;;;;;;;14.20;100.00;164278.69;5069194;28;20499;-61
2022/06/06 04:46:14;;;;;;;51.13;33.60;;;;;;;14.18;100.00;164273.31;5067740;28;20102;-62
2022/06/06 04:48:40;;;;;;;47.50;32.38;;;;;;;14.25;100.00;164292.25;5073039;28;20387;-62
2022/06/06 04:51:07;;;;;;;52.38;32.05;;;;;;;14.25;100.00;164292.25;5070930;28;20060;-62
2022/06/06 04:53:39;;;;;;;52.30;31.88;;;;;;;14.23;100.00;164286.81;5073815;28;20028;-62
2022/06/06 04:56:06;;;;;;;48.15;34.13;;;;;;;14.27;100.00;164297.63;5071703;28;20492;-62
2022/06/06 04:58:35;;;;;;;53.17;28.73;;;;;;;14.30;100.00;164303.06;5073114;28;20028;-61
2022/06/06 05:01:02;;;;;;;41.70;26.75;;;;;;;14.25;100.00;164292.25;5069781;28;20488;-58
2022/06/06 05:03:27;;;;;;;47.45;30.08;;;;;;;14.20;100.00;164277.34;5067258;28;20032;-62
2022/06/06 05:05:58;;;;;;;52.72;31.60;;;;;;;14.17;100.00;164270.59;5061409;28;20047;-62
2022/06/06 05:08:42;;;;;;;47.22;29.38;;;;;;;14.08;100.00;164247.56;5063474;28;20043;-62
2022/06/06 05:11:24;;;;;;;43.05;26.70;;;;;;;14.10;100.00;164251.66;5060259;28;20040;-62
2022/06/06 05:14:01;;;;;;;39.28;25.42;;;;;;;14.07;100.00;164243.53;5063805;28;20486;-62
2022/06/06 05:16:46;;;;;;;47.35;26.92;;;;;;;14.00;100.00;164224.59;5063640;28;20098;-61
2022/06/06 05:19:27;;;;;;;42.08;25.67;;;;;;;14.03;100.00;164232.72;5064550;28;20020;-62
2022/06/06 05:22:24;;;;;;;33.97;23.05;;;;;;;14.01;100.00;164227.31;5062596;28;20087;-62
2022/06/06 05:25:10;;;;;;;40.08;24.58;;;;;;;14.04;100.00;164235.38;5061377;28;20052;-62
2022/06/06 05:27:58;;;;;;;41.95;26.00;;;;;;;14.10;100.00;164251.66;5061763;28;20565;-62
2022/06/06 05:30:38;;;;;;;42.90;28.93;;;;;;;14.09;100.00;164248.94;5063083;28;20513;-62
2022/06/06 05:33:11;;;;;;;50.58;32.78;;;;;;;14.13;100.00;164259.75;5063297;28;20524;-62
2022/06/06 05:36:10;;;;;;;46.33;29.58;;;;;;;14.16;100.00;164266.50;5062219;28;20392;-62
2022/06/06 05:38:53;;;;;;;55.97;35.08;;;;;;;14.16;100.00;164267.88;5070963;28;20032;-62
2022/06/06 05:41:44;;;;;;;56.45;37.72;;;;;;;14.13;100.00;164259.75;5065869;28;20094;-62
2022/06/06 05:44:33;;;;;;;58.05;38.85;;;;;;;14.20;100.00;164278.69;5072012;28;20121;-62
2022/06/06 05:47:14;;;;;;;58.97;39.30;;;;;;;14.29;100.00;164301.72;5070073;28;20140;-62
2022/06/06 05:50:11;;;;;;;61.40;40.72;;;;;;;14.28;100.00;164300.34;5071247;28;20020;-62
2022/06/06 05:52:42;;;;;;;55.92;35.97;;;;;;;14.34;100.00;164315.22;5061585;28;20116;-62
2022/06/06 05:55:19;;;;;;;60.10;40.00;;;;;;;14.33;100.00;164311.19;5069002;28;20503;-61
2022/06/06 05:57:59;;;;;;;65.05;41.80;;;;;;;14.34;100.00;164313.84;5071081;28;20109;-63
2022/06/06 06:00:43;;;;;;;62.28;43.60;;;;;;;14.41;100.00;164332.78;5069168;28;20048;-59
2022/06/06 06:03:27;;;;;;;52.65;41.28;;;;;;;14.51;100.00;164358.53;5070662;28;20029;-60
2022/06/06 06:05:59;;;;;;;59.45;42.58;;;;;;;14.59;100.00;164381.53;5070243;28;20044;-59
2022/06/06 06:08:46;;;;;;;59.88;40.70;;;;;;;14.68;100.00;164403.22;5071800;28;20116;-60
2022/06/06 06:11:26;;;;;;;51.88;39.80;;;;;;;14.58;100.00;164378.81;5070045;28;20067;-59
2022/06/06 06:14:15;;;;;;;51.60;37.15;;;;;;;14.78;100.00;164428.94;5070854;28;20266;-59
2022/06/06 06:16:44;;;;;;;56.10;39.60;;;;;;;14.85;100.00;164447.88;5069283;28;20044;-59
2022/06/06 06:19:17;;;;;;;48.25;36.75;;;;;;;14.78;100.00;164430.25;5071064;28;20110;-59
2022/06/06 06:21:47;;;;;;;49.75;36.55;;;;;;;14.89;100.00;164460.06;5070271;28;20075;-59
2022/06/06 06:24:17;;;;;;;47.30;32.50;;;;;;;14.88;100.00;164457.34;5070298;28;20020;-59
2022/06/06 06:26:44;;;;;;;46.65;33.78;;;;;;;14.80;100.00;164435.69;5049727;28;20045;-59
2022/06/06 06:29:10;;;;;;;48.80;32.47;;;;;;;14.66;100.00;164399.19;5062077;28;20031;-59
2022/06/06 06:31:41;;;;;;;40.53;30.35;;;;;;;14.47;100.00;164349.06;5069048;28;20044;-58
2022/06/06 06:34:36;;;;;;;34.33;27.42;;;;;;;14.45;100.00;164343.66;5070767;28;20037;-59
2022/06/06 06:37:25;;;;;;;42.17;28.80;;;;;;;14.59;100.00;164381.53;5069071;28;20868;-58
2022/06/06 06:40:24;;;;;;;34.90;27.48;;;;;;;14.71;100.00;164411.31;5069875;28;20099;-59
2022/06/06 06:43:15;;;;;;;30.25;25.90;;;;;;;14.77;100.00;164427.59;5069850;28;20123;-59
2022/06/06 06:45:48;;;;;;;28.50;25.50;;;;;;;14.84;100.00;164446.53;5069530;28;20110;-61
2022/06/06 06:48:22;;;;;;;30.83;24.63;;;;;;;14.87;100.00;164453.31;5069459;28;20032;-61
2022/06/06 06:51:02;;;;;;;37.58;27.20;;;;;;;14.84;100.00;164446.53;5069697;28;20101;-61
2022/06/06 06:53:33;;;;;;;32.78;26.45;;;;;;;14.73;100.00;164416.75;5070398;28;20364;-57
2022/06/06 06:56:16;;;;;;;38.53;30.65;;;;;;;14.94;100.00;164472.25;5068144;28;20148;-57
2022/06/06 06:59:08;;;;;;;37.35;29.17;;;;;;;15.19;100.00;164538.56;5070585;28;20035;-57
2022/06/06 07:11:06;;;;;;;35.15;28.90;;;;;;;15.69;100.00;164668.50;5068568;28;20066;-57
2022/06/06 07:14:00;;;;;;;31.85;27.25;;;;;;;15.64;100.00;164656.31;5069782;28;20036;-57
2022/06/06 07:16:29;;;;;;;29.10;25.65;;;;;;;15.74;100.00;164682.06;5068429;28;20060;-57
2022/06/06 07:19:17;;;;;;;40.45;22.85;;;;;;;15.84;100.00;164709.19;5070024;28;20036;-57
2022/06/06 07:21:45;;;;;;;31.80;22.27;;;;;;;15.93;100.00;164730.84;5065128;28;20071;-58
2022/06/06 07:24:15;;;;;;;26.17;21.02;;;;;;;15.82;100.00;164703.69;5068948;28;20077;-57
2022/06/06 07:26:42;;;;;;;23.17;19.80;;;;;;;15.63;100.00;164652.25;5064443;28;20064;-57
2022/06/06 07:29:10;;;;;;;19.30;17.20;;;;;;;15.54;100.00;164630.59;5069448;28;20028;-58
2022/06/06 07:31:39;;;;;;;19.10;16.10;;;;;;;15.68;100.00;164665.78;5067211;28;20044;-58
2022/06/06 07:34:29;;;;;;;19.77;15.32;;;;;;;15.79;100.00;164695.59;5067208;28;20035;-58
2022/06/06 07:37:16;;;;;;;21.35;15.25;;;;;;;16.04;100.00;164759.28;5068231;28;20124;-58
2022/06/06 07:40:03;;;;;;;18.58;14.40;;;;;;;16.13;100.00;164785.00;5068485;28;20096;-57
2022/06/06 07:42:53;;;;;;;21.03;15.90;;;;;;;16.31;100.00;164832.41;5068088;28;20476;-57
2022/06/06 07:45:30;;;;;;;22.67;17.67;;;;;;;16.62;100.00;164912.34;5067879;28;20110;-57
2022/06/06 07:48:25;;;;;;;20.92;17.40;;;;;;;16.77;100.00;164953.00;5069882;28;20251;-58
2022/06/06 07:51:11;;;;;;;15.80;13.45;;;;;;;-146.58;100.00;69501.63;5049315;28;20146;-58
2022/06/06 07:54:15;;;;;;;18.92;13.85;;;;;;;17.11;100.00;165041.13;5061125;28;20025;-57
2022/06/06 07:56:53;;;;;;;14.45;13.00;;;;;;;17.39;100.00;165115.59;5060067;28;20043;-57
2022/06/06 07:59:24;;;;;;;17.88;12.98;;;;;;;17.25;100.00;165077.66;5057635;28;20025;-58
2022/06/06 08:01:55;;;;;;;14.82;13.30;;;;;;;17.03;100.00;165020.75;5065120;28;20102;-58
2022/06/06 08:05:06;;;;;;;20.67;14.07;;;;;;;16.84;100.00;164969.25;5068759;28;20031;-57
2022/06/06 08:07:47;;;;;;;16.95;13.00;;;;;;;16.42;100.00;164860.84;5044446;28;20468;-58
2022/06/06 08:10:34;;;;;;;17.45;11.70;;;;;;;16.53;100.00;164887.94;5056489;28;20079;-58
2022/06/06 08:13:23;;;;;;;10.77;9.68;;;;;;;16.81;100.00;164963.81;5067745;28;20418;-58
2022/06/06 08:16:13;;;;;;;10.27;9.27;;;;;;;16.90;100.00;164986.81;5062822;28;20064;-58
2022/06/06 08:19:04;;;;;;;12.93;11.68;;;;;;;16.95;100.00;164999.06;5068495;28;20428;-57
2022/06/06 08:21:43;;;;;;;16.10;11.68;;;;;;;17.22;100.00;165069.56;5058245;28;20051;-58
2022/06/06 08:24:12;;;;;;;;;;;;;;;17.69;100.00;165192.88;5068487;28;20028;-58
2022/06/06 08:26:41;;;;;;;12.35;10.90;;;;;;;17.82;100.00;165226.78;5071592;28;19916;-57
2022/06/06 08:29:08;;;;;;;11.57;10.52;;;;;;;17.97;100.00;165267.50;5069404;28;20361;-58
2022/06/06 08:31:33;;;;;;;10.73;9.65;;;;;;;18.00;100.00;165275.59;5071128;28;20047;-57
2022/06/06 08:33:59;;;;;;;8.02;6.45;;;;;;;18.19;100.00;165324.44;5067886;28;20028;-57
2022/06/06 08:36:37;;;;;;;7.40;6.60;;;;;;;18.02;100.00;165281.06;5059737;28;20148;-57
2022/06/06 08:39:36;;;;;;;8.32;5.03;;;;;;;18.12;100.00;165305.47;5073334;28;20098;-57
2022/06/06 08:42:17;;;;;;;12.75;5.30;;;;;;;17.92;100.00;165253.88;5068053;28;20036;-57
2022/06/06 08:45:07;;;;;;;6.03;5.43;;;;;;;18.16;100.00;165316.28;5062642;28;20431;-58
2022/06/06 08:47:37;;;;;;;7.00;5.90;;;;;;;17.89;100.00;165245.75;5065671;28;20103;-57
2022/06/06 08:53:33;;;;;;;7.78;7.00;;;;;;;17.13;100.00;165046.50;5053166;28;20028;-57
2022/06/06 08:56:20;;;;;;;7.05;6.45;;;;;;;16.70;100.00;164934.03;5051876;28;20056;-58
2022/06/06 08:59:07;;;;;;;8.10;6.50;;;;;;;16.59;100.00;164904.19;5053290;28;20021;-57
2022/06/06 09:02:06;;;;;;;14.98;7.53;;;;;;;16.78;100.00;164955.72;5060574;28;20132;-58
2022/06/06 09:04:37;;;;;;;7.78;7.03;;;;;;;17.48;100.00;165137.28;5060479;28;20028;-57
2022/06/06 09:07:34;;;;;;;12.73;6.18;;;;;;;18.12;100.00;165306.81;5071476;28;20097;-58
2022/06/06 09:10:14;;;;;;;14.18;6.38;;;;;;;17.83;100.00;165229.50;5071060;28;20032;-58
2022/06/06 09:13:16;;;;;;;8.75;7.75;;;;;;;17.33;100.00;165099.34;5072890;28;20171;-57
2022/06/06 09:16:16;;;;;;;7.05;6.40;;;;;;;17.36;100.00;165107.50;5071275;28;20063;-57
2022/06/06 09:19:11;;;;;;;7.15;6.43;;;;;;;17.43;100.00;165125.09;5063958;28;20415;-58
2022/06/06 09:22:09;;;;;;;7.63;6.60;;;;;;;17.61;100.00;165172.53;5071568;28;20048;-57
2022/06/06 09:25:01;;;;;;;5.53;5.13;;;;;;;18.23;100.00;165335.28;5072302;28;20056;-57
2022/06/06 09:27:48;;;;;;;7.55;5.63;;;;;;;18.23;100.00;165335.28;5070535;28;20048;-58
2022/06/06 09:30:47;;;;;;;4.65;4.30;;;;;;;18.06;100.00;165291.88;5056618;28;20035;-58
2022/06/06 09:33:27;;;;;;;7.85;4.72;;;;;;;18.59;100.00;165430.19;5072223;28;20399;-58
2022/06/06 09:36:15;;;;;;;5.00;3.45;;;;;;;18.49;100.00;165403.09;5070422;28;20139;-58
2022/06/06 09:38:53;;;;;;;5.63;3.80;;;;;;;17.99;100.00;165272.91;5068486;28;20024;-58
2022/06/06 09:41:18;;;;;;;;;;;;;;;18.23;100.00;165335.28;5070234;28;20110;-58
2022/06/06 09:43:55;;;;;;;2.92;2.72;;;;;;;18.37;100.00;165371.91;5062958;28;20379;-58
2022/06/06 09:46:40;;;;;;;6.55;4.13;;;;;;;18.19;100.00;165324.44;5070028;28;20048;-58
2022/06/06 09:49:44;;;;;;;5.93;2.88;;;;;;;18.20;100.00;165327.16;5071606;28;20107;-57
2022/06/06 09:52:25;;;;;;;2.53;2.33;;;;;;;18.35;100.00;165367.84;5070803;28;20504;-57
2022/06/06 10:01:04;;;;;;;3.92;1.70;;;;;;;18.63;100.00;165441.06;5070700;28;20047;-57
2022/06/06 10:03:55;;;;;;;2.92;2.20;;;;;;;18.51;100.00;165408.47;5072157;28;20646;-57
2022/06/06 10:06:55;;;;;;;5.07;2.13;;;;;;;18.20;100.00;165327.16;5060708;28;20036;-57
2022/06/06 10:09:46;;;;;;;3.75;2.40;;;;;;;17.95;100.00;165262.06;5070610;28;20051;-58
2022/06/06 10:12:21;;;;;;;5.03;2.50;;;;;;;17.85;100.00;165234.88;5070575;28;20614;-57
2022/06/06 10:15:16;;;;;;;4.72;2.90;;;;;;;18.23;100.00;165335.28;5071747;28;20028;-57
2022/06/06 10:17:41;;;;;;;3.17;2.60;;;;;;;18.61;100.00;165435.63;5070646;28;20067;-58
2022/06/06 10:20:13;;;;;;;3.53;1.90;;;;;;;18.68;100.00;165454.59;5070487;28;20132;-58
2022/06/06 10:23:11;;;;;;;3.65;3.33;;;;;;;19.05;100.00;165549.59;5071155;28;20031;-57
2022/06/06 10:26:05;;;;;;;2.63;2.40;;;;;;;19.32;100.00;165621.50;5070153;28;20053;-57
2022/06/06 10:28:45;;;;;;;2.80;2.20;;;;;;;19.47;100.00;165660.88;5071887;28;20392;-58
2022/06/06 10:31:32;;;;;;;5.85;1.60;;;;;;;20.00;100.00;165799.28;5070141;28;20036;-58
2022/06/06 10:34:26;;;;;;;4.80;2.40;;;;;;;19.79;100.00;165744.97;5071429;28;20501;-57
2022/06/06 10:37:22;;;;;;;3.47;1.88;;;;;;;20.15;100.00;165840.00;5069972;28;20040;-57
2022/06/06 10:39:56;;;;;;;4.65;2.40;;;;;;;20.01;100.00;165803.38;5071212;28;20025;-58
2022/06/06 10:42:46;;;;;;;1.60;1.50;;;;;;;20.19;100.00;165850.88;5069879;28;20044;-58
2022/06/06 10:45:16;;;;;;;4.13;2.15;;;;;;;19.94;100.00;165785.72;5069016;28;20027;-58
2022/06/06 10:47:56;;;;;;;1.55;1.38;;;;;;;19.88;100.00;165769.44;5071312;28;20024;-58
2022/06/06 10:51:36;;;;;;;3.22;2.47;;;;;;;20.05;100.00;165812.88;5070173;28;20444;-57
2022/06/06 10:54:11;;;;;;;4.30;1.87;;;;;;;19.45;100.00;165656.75;5070682;28;20495;-58
2022/06/06 10:56:52;;;;;;;2.10;1.40;;;;;;;19.11;100.00;165565.84;5069977;28;20045;-57
2022/06/06 10:59:37;;;;;;;2.17;1.77;;;;;;;18.75;100.00;165470.88;5070855;28;20029;-58
2022/06/06 11:02:05;;;;;;;5.22;3.33;;;;;;;19.22;100.00;165595.72;5069304;28;20442;-58
2022/06/06 11:04:36;;;;;;;2.15;1.95;;;;;;;19.50;100.00;165668.97;5071139;28;20031;-57
2022/06/06 11:07:13;;;;;;;3.67;1.58;;;;;;;19.66;100.00;165712.41;5068929;28;20036;-57
2022/06/06 11:09:57;;;;;;;3.30;1.90;;;;;;;19.76;100.00;165736.84;5070392;28;20249;-58
2022/06/06 11:12:42;;;;;;;5.13;2.72;;;;;;;19.52;100.00;165674.41;5068990;28;20056;-58
2022/06/06 11:15:08;;;;;;;1.60;1.50;;;;;;;19.32;100.00;165621.50;5069285;28;20090;-57
2022/06/06 11:18:03;;;;;;;2.63;1.75;;;;;;;19.46;100.00;165658.16;5070858;28;20407;-57
2022/06/06 11:20:39;;;;;;;1.77;1.67;;;;;;;19.72;100.00;165725.97;5069253;28;20384;-58
2022/06/06 11:23:14;;;;;;;15.35;3.53;;;;;;;19.73;100.00;165728.69;5069927;28;20032;-57
2022/06/06 11:26:17;;;;;;;3.50;2.00;;;;;;;20.01;100.00;165802.00;5068543;28;20048;-58
2022/06/06 11:29:11;;;;;;;1.83;1.50;;;;;;;20.51;100.00;165935.06;5070195;28;20040;-58
2022/06/06 11:31:56;;;;;;;2.58;1.40;;;;;;;21.06;100.00;166080.38;5068686;28;20116;-62
2022/06/06 11:34:42;;;;;;;2.78;1.52;;;;;;;21.17;100.00;166108.91;5070343;28;20077;-58
2022/06/06 11:37:34;;;;;;;7.72;2.45;;;;;;;21.24;100.00;166127.91;5068402;28;20522;-58
2022/06/06 11:39:59;;;;;;;4.35;1.70;;;;;;;20.72;100.00;165989.34;5067857;28;20043;-58
2022/06/06 11:42:52;;;;;;;12.50;3.25;;;;;;;20.64;100.00;165968.97;5070493;28;20438;-57
2022/06/06 11:45:42;;;;;;;3.90;1.52;;;;;;;20.50;100.00;165932.34;5068101;28;20415;-58
2022/06/06 11:48:30;;;;;;;5.88;1.15;;;;;;;20.61;100.00;165962.19;5069547;28;20324;-58
2022/06/06 11:51:26;;;;;;;1.58;1.10;;;;;;;20.91;100.00;166040.97;5062251;28;20470;-58
2022/06/06 11:54:15;;;;;;;1.92;1.20;;;;;;;20.89;100.00;166035.53;5053877;28;20410;-58
2022/06/06 11:57:16;;;;;;;2.95;1.02;;;;;;;20.45;100.00;165918.72;5048770;28;20037;-57
2022/06/06 11:59:50;;;;;;;6.88;1.52;;;;;;;20.12;100.00;165831.88;5049762;28;20063;-59
2022/06/06 12:02:29;;;;;;;3.72;1.23;;;;;;;19.65;100.00;165709.69;5048702;28;20067;-58
2022/06/06 12:05:15;;;;;;;2.08;1.10;;;;;;;19.29;100.00;165614.72;5049914;28;20074;-58
2022/06/06 12:07:49;;;;;;;3.17;1.27;;;;;;;19.45;100.00;165655.44;5048458;28;20040;-58
2022/06/06 12:10:18;;;;;;;1.48;1.02;;;;;;;19.58;100.00;165690.69;5048728;28;20028;-58
2022/06/06 12:12:45;;;;;;;1.10;1.10;;;;;;;19.54;100.00;165679.84;5049746;28;20025;-58
2022/06/06 12:15:36;;;;;;;2.38;1.27;;;;;;;19.49;100.00;165667.66;5048466;28;20047;-58
2022/06/06 12:18:25;;;;;;;4.13;1.20;;;;;;;19.11;100.00;165565.84;5049898;28;20801;-57
2022/06/06 12:21:05;;;;;;;1.70;1.00;;;;;;;18.47;100.00;165397.66;5066855;28;20549;-57
2022/06/06 12:24:18;;;;;;;11.07;2.38;;;;;;;17.16;100.00;165054.66;5068995;28;20103;-57
2022/06/06 12:26:56;;;;;;;7.32;1.45;;;;;;;16.44;100.00;164866.28;5068030;28;20075;-58
2022/06/06 12:29:33;;;;;;;1.77;1.60;;;;;;;16.41;100.00;164856.78;5060539;28;20491;-57